Time;durP1;ratioP1;P1;durP2;ratioP2;P2;SDS_P1;SDS_P2;PMS_P1;PMS_P2;Temp;Humidity;BMP_temperature;BMP_pressure;BME280_temperature;BME280_humidity;BME280_pressure;Samples;Min_cycle;Max_cycle;Signal;HPM_P1;HPM_P2
2024/03/05 00:03:43;;;;;;;14.30;7.37;;;;;;;7.93;65.00;100462.56;31099944;28;20530;-74
2024/03/05 00:18:46;;;;;;;16.47;8.40;;;;;;;7.47;66.05;100456.09;31071845;28;20107;-74
2024/03/05 00:33:49;;;;;;;13.77;7.07;;;;;;;7.52;67.96;100468.44;31083165;28;20080;-73
2024/03/05 00:48:51;;;;;;;14.70;6.70;;;;;;;7.42;67.14;100469.22;31080024;28;20140;-73
2024/03/05 01:03:55;;;;;;;17.53;7.50;;;;;;;7.19;69.93;100473.09;31090038;28;20054;-73
2024/03/05 01:18:57;;;;;;;17.13;6.37;;;;;;;7.01;72.11;100472.31;31090277;28;20058;-73
2024/03/05 01:34:03;;;;;;;16.97;8.30;;;;;;;6.99;72.78;100468.47;31079609;28;20054;-73
2024/03/05 01:49:07;;;;;;;13.00;7.23;;;;;;;6.87;73.67;100466.91;31074397;28;20086;-73
2024/03/05 02:04:10;;;;;;;19.33;7.17;;;;;;;6.79;73.99;100476.16;31094821;28;20088;-73
2024/03/05 02:19:12;;;;;;;16.83;7.13;;;;;;;6.49;77.19;100479.16;31104984;28;20495;-80
2024/03/05 02:34:15;;;;;;;16.17;7.43;;;;;;;6.50;81.01;100475.31;31121003;28;20054;-81
2024/03/05 02:49:21;;;;;;;21.03;6.63;;;;;;;6.37;82.57;100464.13;31102954;28;20089;-80
2024/03/05 03:04:25;;;;;;;12.63;6.93;;;;;;;6.72;77.62;100460.72;31141904;28;20050;-81
2024/03/05 03:19:27;;;;;;;14.97;6.70;;;;;;;5.64;85.68;100457.97;31116710;28;20057;-81
2024/03/05 03:34:29;;;;;;;17.93;6.60;;;;;;;6.30;86.80;100461.38;31093136;28;20054;-80
2024/03/05 03:49:33;;;;;;;14.97;6.90;;;;;;;6.42;80.23;100447.53;31088355;28;20057;-81
2024/03/05 04:04:42;;;;;;;14.37;6.73;;;;;;;6.62;78.08;100444.50;31088355;28;20046;-82
2024/03/05 04:19:44;;;;;;;12.80;6.20;;;;;;;5.97;81.26;100445.44;31114892;28;20799;-82
2024/03/05 04:34:59;;;;;;;19.30;5.83;;;;;;;6.18;77.06;100445.53;31093310;28;20068;-81
2024/03/05 04:50:02;;;;;;;16.03;7.30;;;;;;;5.91;82.72;100444.25;31097633;28;20550;-79
2024/03/05 05:05:04;;;;;;;13.57;5.90;;;;;;;6.13;82.54;100437.84;31102167;28;20064;-80
2024/03/05 05:20:08;;;;;;;10.43;6.13;;;;;;;6.70;77.64;100446.06;31077923;28;20062;-83
2024/03/05 05:35:10;;;;;;;16.50;7.67;;;;;;;7.28;72.84;100442.25;31118838;28;20689;-83
2024/03/05 05:50:18;;;;;;;19.23;7.40;;;;;;;7.57;67.41;100449.13;31094731;28;20082;-80
2024/03/05 06:05:25;;;;;;;11.60;5.77;;;;;;;8.55;61.50;100439.09;31117285;28;20488;-83
2024/03/05 06:20:32;;;;;;;13.03;6.97;;;;;;;8.67;60.51;100431.72;31087536;28;20133;-82
2024/03/05 06:35:35;;;;;;;13.30;5.57;;;;;;;9.54;58.72;100429.41;31079874;28;20054;-81
2024/03/05 06:50:38;;;;;;;13.70;6.20;;;;;;;10.81;54.57;100409.22;31078046;28;20524;-81
2024/03/05 07:05:42;;;;;;;12.97;6.30;;;;;;;12.14;49.52;100403.66;31106954;28;20041;-76
2024/03/05 07:20:45;;;;;;;13.30;6.47;;;;;;;11.10;52.08;100382.34;31076779;28;20111;-81
2024/03/05 07:35:48;;;;;;;12.57;5.87;;;;;;;13.35;48.26;100374.31;31114253;28;20046;-80
2024/03/05 07:50:50;;;;;;;14.03;6.40;;;;;;;14.10;46.63;100372.22;31156422;28;20050;-84
2024/03/05 08:05:52;;;;;;;14.93;6.63;;;;;;;15.42;45.15;100350.34;31076623;28;20053;-84
2024/03/05 08:20:54;;;;;;;10.80;5.60;;;;;;;16.89;44.00;100349.03;31093037;28;20144;-82
2024/03/05 08:35:57;;;;;;;16.37;6.37;;;;;;;16.91;42.10;100347.38;31079471;28;20108;-74
2024/03/05 08:50:59;;;;;;;9.83;5.77;;;;;;;17.48;41.67;100344.19;31078024;28;20057;-78
2024/03/05 09:06:02;;;;;;;14.03;5.53;;;;;;;18.56;41.70;100331.28;31074574;28;20073;-76
2024/03/05 09:21:07;;;;;;;9.83;4.57;;;;;;;17.63;42.41;100328.59;31102086;28;20092;-79
2024/03/05 09:36:09;;;;;;;10.23;5.70;;;;;;;17.95;42.51;100305.91;31106818;28;20038;-81
2024/03/05 09:51:14;;;;;;;11.33;4.77;;;;;;;18.33;42.35;100301.78;31094518;28;20049;-78
2024/03/05 10:06:16;;;;;;;;;;;;;;;17.94;42.64;100282.44;31077372;28;20551;-78
2024/03/05 10:21:22;;;;;;;11.70;4.90;;;;;;;16.74;45.77;100265.88;31091655;28;19921;-75
2024/03/05 10:36:33;;;;;;;8.27;5.43;;;;;;;16.47;45.65;100267.34;31105485;28;20522;-81
2024/03/05 10:51:38;;;;;;;10.50;5.37;;;;;;;15.99;45.91;100236.03;31125180;28;20058;-81
2024/03/05 11:06:41;;;;;;;12.73;5.17;;;;;;;17.30;43.43;100222.22;31118414;28;20038;-81
2024/03/05 11:21:43;;;;;;;10.27;4.67;;;;;;;17.50;44.50;100220.94;31100740;28;20409;-82
2024/03/05 11:37:05;;;;;;;10.47;5.37;;;;;;;18.81;42.37;100191.81;31124562;28;20046;-81
2024/03/05 11:52:08;;;;;;;11.00;4.93;;;;;;;18.78;40.92;100203.75;31120992;28;20053;-83
2024/03/05 12:07:13;;;;;;;10.27;4.63;;;;;;;17.16;43.20;100198.19;31094238;28;20066;-82
2024/03/05 12:22:16;;;;;;;11.17;4.93;;;;;;;16.36;44.73;100184.81;30997857;28;20054;-81
2024/03/05 12:37:19;;;;;;;10.50;4.97;;;;;;;15.47;45.83;100174.69;30968117;28;20050;-81
2024/03/05 12:52:24;;;;;;;11.33;4.83;;;;;;;15.43;46.20;100167.81;30987993;28;20109;-81
2024/03/05 13:07:26;;;;;;;9.52;4.60;;;;;;;15.29;47.18;100169.16;30985073;28;20054;-82
2024/03/05 13:22:29;;;;;;;11.83;5.60;;;;;;;15.00;47.24;100158.50;30950428;28;20082;-76
2024/03/05 13:37:35;;;;;;;9.63;5.30;;;;;;;14.90;47.53;100165.13;30978011;28;20105;-83
2024/03/05 13:52:41;;;;;;;9.80;5.00;;;;;;;14.86;47.94;100153.56;30969365;28;20136;-82
2024/03/05 14:07:44;;;;;;;15.00;5.97;;;;;;;14.56;48.73;100158.53;30946944;28;20456;-86
2024/03/05 14:22:46;;;;;;;13.33;5.93;;;;;;;14.23;49.50;100154.56;31099866;28;20054;-84
2024/03/05 14:37:49;;;;;;;16.20;5.30;;;;;;;14.55;49.08;100145.31;31113869;28;20422;-85
2024/03/05 14:52:54;;;;;;;13.20;5.53;;;;;;;13.97;50.23;100146.44;31101469;28;20120;-84
2024/03/05 15:07:56;;;;;;;15.00;6.27;;;;;;;13.85;51.05;100147.22;31075296;28;20064;-81
2024/03/05 15:22:59;;;;;;;16.53;7.00;;;;;;;13.58;51.96;100160.56;31138587;28;20152;-78
2024/03/05 15:38:04;;;;;;;22.17;6.63;;;;;;;12.90;54.28;100178.13;31127594;28;20129;-79
2024/03/05 15:53:08;;;;;;;13.77;7.10;;;;;;;12.33;57.63;100176.91;31085025;28;20190;-79
2024/03/05 16:08:11;;;;;;;19.93;7.23;;;;;;;12.67;57.98;100172.94;31077232;28;20428;-83
2024/03/05 16:23:13;;;;;;;20.03;8.27;;;;;;;12.92;57.82;100167.56;31122101;28;20049;-83
2024/03/05 16:38:16;;;;;;;26.50;9.23;;;;;;;12.12;59.81;100155.69;31127075;28;20100;-86
2024/03/05 16:53:18;;;;;;;16.53;7.53;;;;;;;12.08;59.39;100150.31;31153873;28;20046;-86
2024/03/05 17:08:21;;;;;;;17.47;8.13;;;;;;;11.79;61.92;100144.84;31119371;28;20056;-84
2024/03/05 17:23:40;;;;;;;22.50;9.77;;;;;;;11.48;61.96;100163.38;31116638;28;20054;-84
2024/03/05 17:38:43;;;;;;;22.47;9.37;;;;;;;11.47;60.21;100171.97;31149958;28;20096;-86
2024/03/05 17:53:45;;;;;;;16.13;8.47;;;;;;;10.74;60.34;100186.66;31136176;28;20060;-85
2024/03/05 18:08:47;;;;;;;16.73;8.50;;;;;;;9.89;62.97;100189.63;31129018;28;20057;-87
2024/03/05 18:23:54;;;;;;;24.63;9.03;;;;;;;10.30;61.96;100202.19;31136078;28;20057;-84
2024/03/05 18:39:00;;;;;;;14.37;7.90;;;;;;;8.89;65.69;100208.38;31113998;28;20053;-86
2024/03/05 18:54:02;;;;;;;13.23;6.60;;;;;;;9.35;61.29;100217.91;31203201;28;20042;-85
2024/03/05 19:09:08;;;;;;;17.60;6.90;;;;;;;8.50;60.67;100233.16;31115451;28;22024;-81
2024/03/05 19:24:10;;;;;;;20.40;6.97;;;;;;;8.84;60.04;100225.84;31093885;28;20053;-83
2024/03/05 19:39:13;;;;;;;16.87;6.80;;;;;;;8.37;61.61;100229.38;31105283;28;20057;-83
2024/03/05 19:54:15;;;;;;;20.23;7.50;;;;;;;8.15;62.81;100239.59;31086041;28;20141;-78
2024/03/05 20:09:20;;;;;;;16.63;8.47;;;;;;;7.55;67.83;100235.34;31051383;28;20058;-78
2024/03/05 20:24:22;;;;;;;19.00;8.83;;;;;;;7.64;67.88;100243.00;30950736;28;20512;-79
2024/03/05 20:39:24;;;;;;;26.43;10.73;;;;;;;6.30;87.42;100237.59;30961529;28;20086;-79
2024/03/05 20:54:26;;;;;;;17.60;10.30;;;;;;;6.70;86.16;100222.13;30970064;28;20046;-78
2024/03/05 21:09:28;;;;;;;23.43;10.20;;;;;;;7.25;81.32;100216.19;30992670;28;20064;-78
2024/03/05 21:24:30;;;;;;;24.27;10.53;;;;;;;6.70;84.35;100230.22;31112073;28;21215;-80
2024/03/05 21:39:33;;;;;;;22.63;10.30;;;;;;;6.82;91.30;100232.53;31086811;28;20080;-78
2024/03/05 21:54:35;;;;;;;20.93;9.60;;;;;;;6.13;97.11;100233.00;31083027;28;20428;-79
2024/03/05 22:09:39;;;;;;;19.80;9.20;;;;;;;7.13;88.58;100233.56;31077964;28;20061;-78
2024/03/05 22:24:41;;;;;;;23.07;10.73;;;;;;;7.18;86.82;100244.75;31085117;28;20073;-79
2024/03/05 22:39:43;;;;;;;30.63;10.83;;;;;;;7.13;85.68;100242.44;31107833;28;20145;-77
2024/03/05 22:54:45;;;;;;;25.87;11.00;;;;;;;7.09;87.18;100230.88;31087835;28;20046;-79
2024/03/05 23:09:47;;;;;;;31.77;11.13;;;;;;;7.06;88.54;100233.63;31125251;28;20193;-79
2024/03/05 23:24:49;;;;;;;26.13;12.93;;;;;;;6.83;87.85;100251.03;30993264;28;20082;-78
2024/03/05 23:39:51;;;;;;;42.20;15.37;;;;;;;6.33;96.03;100266.50;30992609;28;20133;-78
2024/03/05 23:54:54;;;;;;;45.13;14.77;;;;;;;5.37;100.00;100260.09;31004224;28;20054;-77
